createdAt,value
2018-02-08T00:01:08.471Z,83.39
2018-02-08T00:03:35.936Z,83.29
2018-02-08T00:06:03.443Z,83.72
2018-02-08T00:08:30.915Z,84.38
2018-02-08T00:10:58.379Z,84.37
2018-02-08T00:13:25.893Z,84.34
2018-02-08T00:15:53.371Z,84.04
2018-02-08T00:18:20.871Z,83.91
2018-02-08T00:20:48.440Z,84.48
2018-02-08T00:23:15.904Z,83.72
2018-02-08T00:25:43.360Z,84.17
2018-02-08T00:28:10.835Z,83.78
2018-02-08T00:30:38.333Z,83.91
2018-02-08T00:33:05.830Z,83.99
2018-02-08T00:35:33.312Z,84.39
2018-02-08T00:38:00.776Z,83.67
2018-02-08T00:40:28.253Z,83.76
2018-02-08T00:42:55.731Z,83.66
2018-02-08T00:45:23.195Z,84.10
2018-02-08T00:47:50.661Z,83.28
2018-02-08T00:50:18.166Z,83.10
2018-02-08T00:52:45.761Z,83.16
2018-02-08T00:55:13.272Z,83.46
2018-02-08T00:57:40.753Z,83.56
2018-02-08T01:00:08.262Z,83.23
2018-02-08T01:02:35.741Z,83.43
2018-02-08T01:05:03.261Z,83.54
2018-02-08T01:07:30.816Z,83.56
2018-02-08T01:09:58.362Z,83.64
2018-02-08T01:12:25.814Z,82.95
2018-02-08T01:14:53.294Z,83.27
2018-02-08T01:17:20.784Z,83.50
2018-02-08T01:19:48.278Z,84.05
2018-02-08T01:22:15.774Z,83.37
2018-02-08T01:24:43.250Z,82.70
2018-02-08T01:27:10.744Z,83.00
2018-02-08T01:29:38.306Z,82.82
2018-02-08T01:32:05.804Z,82.78
2018-02-08T01:34:33.358Z,82.67
2018-02-08T01:37:00.873Z,82.74
2018-02-08T01:39:28.423Z,82.78
2018-02-08T01:41:55.915Z,83.12
2018-02-08T01:44:23.406Z,82.98
2018-02-08T01:46:50.929Z,82.57
2018-02-08T01:52:20.819Z,83.20
2018-02-08T01:54:48.309Z,82.97
2018-02-08T01:57:15.803Z,83.08
2018-02-08T01:59:43.306Z,82.63
2018-02-08T02:02:10.818Z,82.84
2018-02-08T02:04:38.298Z,82.60
2018-02-08T02:07:05.820Z,82.94
2018-02-08T02:09:34.050Z,82.79
2018-02-08T02:12:01.558Z,83.15
2018-02-08T02:14:29.066Z,83.50
2018-02-08T02:16:56.541Z,82.32
2018-02-08T02:19:24.673Z,82.61
2018-02-08T02:21:52.128Z,82.93
2018-02-08T02:24:19.592Z,82.25
2018-02-08T02:26:47.050Z,82.44
2018-02-08T02:29:14.563Z,83.10
2018-02-08T02:31:42.063Z,82.13
2018-02-08T02:34:09.573Z,82.21
2018-02-08T02:36:37.046Z,82.24
2018-02-08T02:39:04.567Z,81.96
2018-02-08T02:41:32.108Z,82.11
2018-02-08T02:43:59.609Z,82.28
2018-02-08T02:46:27.140Z,82.63
2018-02-08T02:48:54.606Z,82.21
2018-02-08T02:51:22.054Z,82.24
2018-02-08T02:53:49.530Z,83.23
2018-02-08T02:56:16.994Z,82.76
2018-02-08T02:58:44.438Z,82.78
2018-02-08T03:01:11.967Z,83.10
2018-02-08T03:03:39.422Z,83.32
2018-02-08T03:06:07.003Z,83.05
2018-02-08T03:08:34.462Z,83.15
2018-02-08T03:11:01.934Z,83.42
2018-02-08T03:13:29.432Z,83.77
2018-02-08T03:15:56.887Z,82.79
2018-02-08T03:18:24.342Z,82.68
2018-02-08T03:20:51.847Z,82.82
2018-02-08T03:23:19.378Z,82.55
2018-02-08T03:25:46.808Z,82.76
2018-02-08T03:28:14.317Z,82.26
2018-02-08T03:33:43.087Z,82.19
2018-02-08T03:36:10.534Z,81.92
2018-02-08T03:38:38.036Z,82.54
2018-02-08T03:41:05.497Z,82.25
2018-02-08T03:43:32.940Z,82.51
2018-02-08T03:46:00.415Z,82.02
2018-02-08T03:48:27.876Z,81.90
2018-02-08T03:50:55.330Z,81.94
2018-02-08T03:53:22.791Z,82.61
2018-02-08T03:55:50.250Z,82.14
2018-02-08T03:58:17.699Z,81.58
2018-02-08T04:00:45.188Z,82.19
2018-02-08T04:03:12.646Z,82.10
2018-02-08T04:05:40.112Z,81.02
2018-02-08T04:08:07.592Z,81.58
2018-02-08T04:10:35.056Z,81.43
2018-02-08T04:13:02.564Z,81.74
2018-02-08T04:15:30.008Z,81.63
2018-02-08T04:17:57.472Z,81.40
2018-02-08T04:20:24.943Z,81.54
2018-02-08T04:22:52.419Z,81.53
2018-02-08T04:25:19.887Z,81.46
2018-02-08T04:27:47.396Z,81.70
2018-02-08T04:30:15.578Z,81.18
2018-02-08T04:32:43.043Z,80.89
2018-02-08T04:35:10.530Z,81.46
2018-02-08T04:37:37.999Z,81.60
2018-02-08T04:40:17.156Z,81.71
2018-02-08T04:42:56.428Z,81.64
2018-02-08T04:45:35.642Z,81.50
2018-02-08T04:48:08.147Z,81.37
2018-02-08T04:50:35.617Z,81.63
2018-02-08T04:53:03.080Z,81.64
2018-02-08T04:55:30.570Z,81.80
2018-02-08T04:57:58.043Z,82.28
2018-02-08T05:00:25.524Z,81.71
2018-02-08T05:02:52.983Z,81.36
2018-02-08T05:05:20.463Z,81.72
2018-02-08T05:07:47.911Z,81.70
2018-02-08T05:10:15.360Z,81.24
2018-02-08T05:12:42.826Z,81.05
2018-02-08T05:15:10.281Z,81.01
2018-02-08T05:17:37.746Z,81.59
2018-02-08T05:20:05.220Z,81.25
2018-02-08T05:22:32.677Z,81.50
2018-02-08T05:25:00.142Z,82.03
2018-02-08T05:27:27.656Z,81.52
2018-02-08T05:29:55.138Z,81.27
2018-02-08T05:32:22.728Z,81.22
2018-02-08T05:34:50.195Z,81.70
2018-02-08T05:37:17.744Z,81.64
2018-02-08T05:39:45.326Z,81.92
2018-02-08T05:42:13.265Z,81.74
2018-02-08T05:44:40.714Z,82.53
2018-02-08T05:47:08.218Z,82.49
2018-02-08T05:49:35.707Z,82.56
2018-02-08T05:52:03.161Z,82.97
2018-02-08T05:54:30.771Z,82.95
2018-02-08T05:56:58.228Z,82.92
2018-02-08T05:59:25.697Z,83.61
2018-02-08T06:01:53.194Z,83.16
2018-02-08T06:04:20.649Z,83.18
2018-02-08T06:06:48.151Z,83.52
2018-02-08T06:09:15.616Z,83.42
2018-02-08T06:11:43.181Z,83.47
2018-02-08T06:14:10.687Z,83.76
2018-02-08T06:16:38.154Z,84.10
2018-02-08T06:19:05.610Z,83.88
2018-02-08T06:21:33.119Z,83.83
2018-02-08T06:24:00.605Z,83.82
2018-02-08T06:26:28.271Z,83.74
2018-02-08T06:28:55.758Z,83.80
2018-02-08T06:31:23.255Z,83.28
2018-02-08T06:33:50.762Z,83.53
2018-02-08T06:36:18.271Z,83.72
2018-02-08T06:38:45.740Z,83.86
2018-02-08T06:41:13.236Z,83.30
2018-02-08T06:43:40.712Z,83.29
2018-02-08T06:46:08.235Z,83.64
2018-02-08T06:48:35.704Z,83.70
2018-02-08T06:51:03.237Z,83.76
2018-02-08T06:53:30.711Z,83.49
2018-02-08T06:55:58.202Z,83.53
2018-02-08T06:58:25.674Z,83.42
2018-02-08T07:00:53.130Z,83.42
2018-02-08T07:03:20.598Z,83.35
2018-02-08T07:05:48.062Z,83.47
2018-02-08T07:08:15.554Z,82.79
2018-02-08T07:10:43.018Z,83.33
2018-02-08T07:13:10.503Z,82.98
2018-02-08T07:15:37.986Z,82.73
2018-02-08T07:18:05.463Z,82.82
2018-02-08T07:20:32.924Z,82.98
2018-02-08T07:23:00.457Z,83.11
2018-02-08T07:25:27.916Z,83.41
2018-02-08T07:27:55.476Z,83.39
2018-02-08T07:30:22.926Z,84.02
2018-02-08T07:32:50.359Z,82.63
2018-02-08T07:35:17.823Z,82.12
2018-02-08T07:37:45.283Z,82.47
2018-02-08T07:40:12.907Z,83.23
2018-02-08T07:42:40.399Z,83.41
2018-02-08T07:45:07.863Z,84.17
2018-02-08T07:47:35.341Z,84.28
2018-02-08T07:50:02.791Z,83.83
2018-02-08T07:52:30.256Z,84.21
2018-02-08T07:54:57.734Z,84.45
2018-02-08T07:57:25.211Z,84.21
2018-02-08T07:59:52.711Z,84.56
2018-02-08T08:02:20.187Z,84.15
2018-02-08T08:04:47.659Z,84.34
2018-02-08T08:07:15.123Z,83.95
2018-02-08T08:09:42.574Z,84.36
2018-02-08T08:12:10.040Z,83.89
2018-02-08T08:14:37.513Z,83.88
2018-02-08T08:17:04.975Z,83.85
2018-02-08T08:19:32.434Z,83.94
2018-02-08T08:21:59.928Z,83.98
2018-02-08T08:24:27.418Z,83.83
2018-02-08T08:26:54.923Z,83.50
2018-02-08T08:31:55.090Z,83.15
2018-02-08T08:34:22.579Z,83.57
2018-02-08T08:36:50.035Z,83.63
2018-02-08T08:39:17.738Z,83.72
2018-02-08T08:41:45.199Z,83.39
2018-02-08T08:44:12.656Z,83.01
2018-02-08T08:46:40.125Z,83.15
2018-02-08T08:49:07.570Z,83.27
2018-02-08T08:51:35.091Z,82.95
2018-02-08T08:54:02.554Z,83.39
2018-02-08T08:56:30.056Z,83.10
2018-02-08T08:58:57.545Z,83.08
2018-02-08T09:01:25.028Z,82.89
2018-02-08T09:03:52.548Z,82.95
2018-02-08T09:06:20.022Z,82.72
2018-02-08T09:08:48.477Z,82.74
2018-02-08T09:11:15.955Z,82.69
2018-02-08T09:13:43.410Z,83.24
2018-02-08T09:16:10.874Z,83.06
2018-02-08T09:18:38.374Z,82.86
2018-02-08T09:21:05.817Z,83.29
2018-02-08T09:23:33.288Z,83.09
2018-02-08T09:26:00.734Z,82.85
2018-02-08T09:28:28.212Z,83.03
2018-02-08T09:30:55.686Z,82.62
2018-02-08T09:33:23.149Z,82.52
2018-02-08T09:35:50.635Z,82.35
2018-02-08T09:38:18.168Z,82.47
2018-02-08T09:40:45.621Z,82.74
2018-02-08T09:43:13.110Z,81.91
2018-02-08T09:45:40.584Z,82.38
2018-02-08T09:48:08.093Z,82.33
2018-02-08T09:50:35.565Z,82.25
2018-02-08T09:53:03.024Z,82.44
2018-02-08T09:55:30.505Z,82.73
2018-02-08T09:57:57.965Z,83.23
2018-02-08T10:00:26.155Z,83.17
2018-02-08T10:02:53.901Z,82.35
2018-02-08T10:05:21.382Z,82.29
2018-02-08T10:07:48.821Z,82.24
2018-02-08T10:10:16.294Z,82.05
2018-02-08T10:12:43.759Z,81.80
2018-02-08T10:15:11.227Z,82.51
2018-02-08T10:17:38.699Z,82.48
2018-02-08T10:20:06.154Z,82.23
2018-02-08T10:22:33.687Z,82.49
2018-02-08T10:25:01.177Z,82.21
2018-02-08T10:27:28.626Z,82.39
2018-02-08T10:29:56.090Z,82.42
2018-02-08T10:32:23.587Z,82.33
2018-02-08T10:34:51.054Z,82.32
2018-02-08T10:37:18.539Z,82.28
2018-02-08T10:39:45.978Z,82.24
2018-02-08T10:42:13.432Z,82.48
2018-02-08T10:44:40.911Z,81.71
2018-02-08T10:47:08.359Z,81.67
2018-02-08T10:49:35.837Z,82.04
2018-02-08T10:52:03.288Z,82.25
2018-02-08T10:54:30.764Z,82.01
2018-02-08T10:56:58.220Z,81.58
2018-02-08T10:59:25.681Z,81.41
2018-02-08T11:01:53.144Z,81.32
2018-02-08T11:04:20.606Z,81.39
2018-02-08T11:06:48.072Z,81.53
2018-02-08T11:09:15.714Z,81.30
2018-02-08T11:11:43.210Z,81.72
2018-02-08T11:14:10.666Z,81.54
2018-02-08T11:16:38.258Z,81.68
2018-02-08T11:19:05.721Z,81.54
2018-02-08T11:21:33.178Z,81.60
2018-02-08T11:24:00.633Z,81.18
2018-02-08T11:26:28.219Z,81.10
2018-02-08T11:28:55.676Z,80.52
2018-02-08T11:31:23.118Z,80.70
2018-02-08T11:33:50.582Z,81.04
2018-02-08T11:36:18.052Z,81.03
2018-02-08T11:38:45.545Z,80.68
2018-02-08T11:41:13.015Z,80.34
2018-02-08T11:43:40.470Z,80.24
2018-02-08T11:46:07.965Z,80.25
2018-02-08T11:48:35.568Z,79.64
2018-02-08T11:51:03.044Z,79.71
2018-02-08T11:53:30.510Z,79.89
2018-02-08T11:55:58.515Z,78.80
2018-02-08T11:58:26.002Z,78.77
2018-02-08T12:00:53.483Z,78.68
2018-02-08T12:03:20.933Z,77.63
2018-02-08T12:05:48.451Z,77.74
2018-02-08T12:08:15.912Z,78.06
2018-02-08T12:10:43.431Z,78.32
2018-02-08T12:13:10.910Z,77.98
2018-02-08T12:15:38.378Z,78.46
2018-02-08T12:18:05.860Z,77.81
2018-02-08T12:20:33.369Z,77.38
2018-02-08T12:23:00.805Z,77.42
2018-02-08T12:25:28.264Z,78.42
2018-02-08T12:27:55.731Z,77.91
2018-02-08T12:30:23.177Z,77.96
2018-02-08T12:32:50.675Z,78.13
2018-02-08T12:35:18.146Z,77.30
2018-02-08T12:37:45.618Z,77.67
2018-02-08T12:40:13.076Z,77.12
2018-02-08T12:42:40.541Z,77.70
2018-02-08T12:45:07.988Z,77.36
2018-02-08T12:47:35.429Z,77.44
2018-02-08T12:50:02.919Z,77.09
2018-02-08T12:52:30.390Z,77.11
2018-02-08T12:54:57.853Z,77.43
2018-02-08T12:57:25.311Z,77.91
2018-02-08T12:59:52.770Z,76.86
2018-02-08T13:02:20.285Z,76.82
2018-02-08T13:04:48.697Z,77.01
2018-02-08T13:07:16.182Z,76.94
2018-02-08T13:09:43.660Z,76.39
2018-02-08T13:12:11.122Z,76.08
2018-02-08T13:14:38.583Z,75.52
2018-02-08T13:17:06.045Z,75.74
2018-02-08T13:19:33.510Z,75.74
2018-02-08T13:22:00.986Z,75.73
2018-02-08T13:24:28.454Z,76.25
2018-02-08T13:26:55.916Z,75.94
2018-02-08T13:29:23.382Z,76.45
2018-02-08T13:31:54.283Z,77.10
2018-02-08T13:34:21.758Z,76.74
2018-02-08T13:36:49.226Z,77.19
2018-02-08T13:39:21.285Z,77.42
2018-02-08T13:41:48.795Z,77.54
2018-02-08T13:44:16.409Z,77.44
2018-02-08T13:46:43.887Z,77.74
2018-02-08T13:49:26.058Z,77.78
2018-02-08T13:55:02.732Z,77.68
2018-02-08T13:57:35.804Z,77.51
2018-02-08T14:00:04.083Z,77.43
2018-02-08T14:02:31.556Z,78.04
2018-02-08T14:04:59.039Z,78.30
2018-02-08T14:07:26.511Z,78.09
2018-02-08T14:09:54.062Z,78.38
2018-02-08T14:12:21.531Z,78.21
2018-02-08T14:14:48.975Z,78.82
2018-02-08T14:17:16.433Z,78.62
2018-02-08T14:19:43.911Z,78.37
2018-02-08T14:22:11.370Z,78.38
2018-02-08T14:24:38.814Z,78.59
2018-02-08T14:27:06.371Z,78.55
2018-02-08T14:29:33.829Z,78.50
2018-02-08T14:32:01.278Z,77.84
2018-02-08T14:34:28.751Z,78.26
2018-02-08T14:36:56.228Z,78.45
2018-02-08T14:39:23.726Z,78.04
2018-02-08T14:41:51.181Z,77.99
2018-02-08T14:44:18.675Z,78.22
2018-02-08T14:46:46.158Z,77.39
2018-02-08T14:49:13.632Z,77.35
2018-02-08T14:51:41.147Z,78.09
2018-02-08T14:54:08.682Z,77.92
2018-02-08T14:56:36.172Z,78.31
2018-02-08T14:59:03.660Z,78.51
2018-02-08T15:01:31.177Z,78.27
2018-02-08T15:03:58.660Z,78.13
2018-02-08T15:06:26.208Z,77.93
2018-02-08T15:08:53.686Z,78.28
2018-02-08T15:11:21.181Z,78.76
2018-02-08T15:13:48.705Z,78.95
2018-02-08T15:16:16.188Z,78.43
2018-02-08T15:18:43.691Z,78.70
2018-02-08T15:21:11.226Z,78.40
2018-02-08T15:23:38.738Z,78.15
2018-02-08T15:26:06.317Z,78.47
2018-02-08T15:28:33.789Z,78.43
2018-02-08T15:31:01.268Z,78.49
2018-02-08T15:33:28.748Z,78.24
2018-02-08T15:35:56.224Z,78.31
2018-02-08T15:38:23.714Z,78.47
2018-02-08T15:40:51.220Z,77.93
2018-02-08T15:43:18.707Z,78.23
2018-02-08T15:45:46.200Z,77.91
2018-02-08T15:48:13.701Z,77.59
2018-02-08T15:50:41.200Z,78.05
2018-02-08T15:53:08.737Z,78.06
2018-02-08T15:55:36.223Z,78.02
2018-02-08T15:58:03.719Z,78.00
2018-02-08T16:00:31.222Z,78.26
2018-02-08T16:02:58.727Z,78.02
2018-02-08T16:05:26.234Z,77.55
2018-02-08T16:07:53.711Z,77.68
2018-02-08T16:10:21.233Z,77.29
2018-02-08T16:12:48.706Z,77.62
2018-02-08T16:15:16.228Z,77.77
2018-02-08T16:17:43.733Z,78.24
2018-02-08T16:20:11.234Z,77.38
2018-02-08T16:22:38.745Z,77.16
2018-02-08T16:25:06.253Z,77.10
2018-02-08T16:27:33.699Z,77.00
2018-02-08T16:30:01.188Z,77.10
2018-02-08T16:32:28.691Z,76.75
2018-02-08T16:34:56.184Z,76.63
2018-02-08T16:37:23.703Z,77.25
2018-02-08T16:39:51.186Z,77.16
2018-02-08T16:42:18.716Z,76.96
2018-02-08T16:44:46.183Z,77.28
2018-02-08T16:47:13.647Z,77.22
2018-02-08T16:49:41.127Z,77.63
2018-02-08T16:52:08.715Z,77.47
2018-02-08T16:54:36.249Z,77.17
2018-02-08T16:57:03.759Z,77.26
2018-02-08T16:59:31.257Z,77.71
2018-02-08T17:01:58.758Z,77.32
2018-02-08T17:04:26.258Z,77.62
2018-02-08T17:06:53.858Z,77.20
2018-02-08T17:09:21.474Z,77.15
2018-02-08T17:11:48.946Z,77.47
2018-02-08T17:14:16.478Z,76.05
2018-02-08T17:16:44.018Z,76.58
2018-02-08T17:19:11.586Z,76.48
2018-02-08T17:21:39.075Z,76.33
2018-02-08T17:24:06.577Z,76.48
2018-02-08T17:26:34.057Z,76.57
2018-02-08T17:29:01.574Z,76.72
2018-02-08T17:31:29.084Z,76.36
2018-02-08T17:33:56.547Z,76.41
2018-02-08T17:36:24.038Z,76.27
2018-02-08T17:38:51.566Z,76.88
2018-02-08T17:41:19.082Z,76.83
2018-02-08T17:43:46.580Z,76.41
2018-02-08T17:46:14.062Z,76.54
2018-02-08T17:48:41.779Z,76.51
2018-02-08T17:51:09.440Z,76.45
2018-02-08T17:53:36.924Z,76.58
2018-02-08T17:56:04.393Z,76.90
2018-02-08T17:58:31.950Z,76.49
2018-02-08T18:00:59.497Z,76.45
2018-02-08T18:03:27.027Z,76.32
2018-02-08T18:05:54.564Z,76.22
2018-02-08T18:08:22.143Z,75.82
2018-02-08T18:10:49.633Z,76.09
2018-02-08T18:13:17.118Z,75.94
2018-02-08T18:15:44.651Z,76.15
2018-02-08T18:18:12.358Z,76.32
2018-02-08T18:20:40.588Z,75.90
2018-02-08T18:23:08.059Z,76.06
2018-02-08T18:25:35.582Z,75.75
2018-02-08T18:28:03.067Z,75.85
2018-02-08T18:30:30.575Z,75.52
2018-02-08T18:32:58.075Z,75.17
2018-02-08T18:35:25.611Z,75.35
2018-02-08T18:37:53.087Z,75.16
2018-02-08T18:40:20.568Z,74.86
2018-02-08T18:42:48.042Z,75.36
2018-02-08T18:45:16.002Z,75.37
2018-02-08T18:47:43.498Z,75.18
2018-02-08T18:50:11.013Z,75.38
2018-02-08T18:52:38.492Z,75.03
2018-02-08T18:55:05.997Z,74.89
2018-02-08T18:57:33.490Z,75.14
2018-02-08T19:00:00.989Z,75.33
2018-02-08T19:02:28.475Z,75.59
2018-02-08T19:04:55.951Z,75.86
2018-02-08T19:07:23.486Z,75.67
2018-02-08T19:09:50.979Z,75.47
2018-02-08T19:12:18.472Z,75.67
2018-02-08T19:14:45.940Z,75.63
2018-02-08T19:17:13.415Z,75.37
2018-02-08T19:19:40.910Z,76.13
2018-02-08T19:22:08.459Z,76.03
2018-02-08T19:24:36.369Z,75.33
2018-02-08T19:27:03.892Z,75.72
2018-02-08T19:29:31.407Z,75.87
2018-02-08T19:31:58.994Z,76.00
2018-02-08T19:34:26.484Z,76.08
2018-02-08T19:36:53.966Z,75.46
2018-02-08T19:39:21.491Z,75.32
2018-02-08T19:41:48.952Z,76.03
2018-02-08T19:44:16.438Z,75.12
2018-02-08T19:46:43.945Z,75.13
2018-02-08T19:49:11.426Z,75.59
2018-02-08T19:51:38.927Z,75.75
2018-02-08T19:54:06.680Z,75.51
2018-02-08T19:56:34.958Z,75.47
2018-02-08T19:59:02.470Z,75.11
2018-02-08T20:01:30.000Z,75.14
2018-02-08T20:03:57.560Z,75.62
2018-02-08T20:06:25.231Z,75.59
2018-02-08T20:08:52.755Z,76.04
2018-02-08T20:11:20.258Z,75.74
2018-02-08T20:13:47.795Z,76.32
2018-02-08T20:16:15.276Z,76.37
2018-02-08T20:18:42.781Z,76.36
2018-02-08T20:21:10.266Z,75.79
2018-02-08T20:23:37.761Z,75.60
2018-02-08T20:26:05.330Z,75.42
2018-02-08T20:28:33.182Z,75.85
2018-02-08T20:31:06.039Z,76.34
2018-02-08T20:33:33.636Z,75.97
2018-02-08T20:36:01.115Z,75.79
2018-02-08T20:38:28.625Z,75.50
2018-02-08T20:40:56.137Z,76.48
2018-02-08T20:43:32.012Z,76.01
2018-02-08T20:45:59.698Z,75.40
2018-02-08T20:48:27.465Z,75.78
2018-02-08T20:50:54.988Z,75.61
2018-02-08T20:53:22.508Z,75.97
2018-02-08T20:55:49.997Z,75.91
2018-02-08T20:58:17.501Z,75.85
2018-02-08T21:00:44.981Z,75.34
2018-02-08T21:03:12.536Z,75.40
2018-02-08T21:05:40.058Z,75.51
2018-02-08T21:08:07.563Z,75.70
2018-02-08T21:10:35.172Z,76.21
2018-02-08T21:13:02.679Z,75.84
2018-02-08T21:15:30.170Z,75.56
2018-02-08T21:17:57.659Z,75.91
2018-02-08T21:20:25.151Z,76.18
2018-02-08T21:22:52.936Z,75.84
2018-02-08T21:25:20.471Z,75.86
2018-02-08T21:27:47.939Z,76.12
2018-02-08T21:30:15.432Z,76.01
2018-02-08T21:32:42.910Z,76.21
2018-02-08T21:35:10.396Z,76.07
2018-02-08T21:37:37.959Z,76.32
2018-02-08T21:40:05.541Z,76.19
2018-02-08T21:42:33.026Z,76.57
2018-02-08T21:45:00.520Z,76.47
2018-02-08T21:47:28.103Z,76.23
2018-02-08T21:49:55.657Z,76.37
2018-02-08T21:52:23.137Z,76.15
2018-02-08T21:54:51.135Z,75.93
2018-02-08T21:57:18.613Z,76.15
2018-02-08T21:59:46.130Z,76.14
2018-02-08T22:02:13.769Z,76.12
2018-02-08T22:04:41.282Z,75.64
2018-02-08T22:07:08.771Z,76.36
2018-02-08T22:09:36.274Z,75.90
2018-02-08T22:12:03.851Z,76.21
2018-02-08T22:14:31.464Z,75.85
2018-02-08T22:16:58.984Z,76.26
2018-02-08T22:19:26.486Z,75.87
2018-02-08T22:21:54.041Z,75.85
2018-02-08T22:24:21.545Z,75.91
2018-02-08T22:26:49.029Z,75.96
2018-02-08T22:29:16.545Z,75.76
2018-02-08T22:31:44.033Z,75.97
2018-02-08T22:34:11.592Z,76.32
2018-02-08T22:36:39.091Z,76.42
2018-02-08T22:39:06.601Z,76.35
2018-02-08T22:41:34.830Z,76.07
2018-02-08T22:44:02.333Z,76.34
2018-02-08T22:46:29.828Z,76.52
2018-02-08T22:48:57.307Z,76.44
2018-02-08T22:51:24.860Z,76.34
2018-02-08T22:53:52.378Z,76.61
2018-02-08T22:56:19.892Z,76.72
2018-02-08T22:58:47.507Z,76.83
2018-02-08T23:01:14.975Z,76.38
2018-02-08T23:03:42.541Z,76.11
2018-02-08T23:06:10.048Z,76.26
2018-02-08T23:08:37.525Z,76.73
2018-02-08T23:11:06.301Z,76.76
2018-02-08T23:13:33.992Z,76.51
2018-02-08T23:16:01.547Z,76.36
2018-02-08T23:18:32.183Z,76.46
2018-02-08T23:20:59.665Z,76.26
2018-02-08T23:23:27.176Z,76.20
2018-02-08T23:25:54.676Z,76.20
2018-02-08T23:28:22.184Z,76.40
2018-02-08T23:30:49.666Z,76.57
2018-02-08T23:33:17.253Z,76.50
2018-02-08T23:35:44.817Z,76.17
2018-02-08T23:38:12.320Z,76.40
2018-02-08T23:40:39.789Z,76.09
2018-02-08T23:43:07.271Z,76.25
2018-02-08T23:45:34.730Z,76.07
2018-02-08T23:48:02.241Z,76.68
2018-02-08T23:50:29.715Z,76.43
2018-02-08T23:52:57.179Z,76.69
2018-02-08T23:55:24.662Z,76.32
2018-02-08T23:57:52.135Z,75.94
